createdAt,value
2023-03-19T00:00:53.981Z,101346.69
2023-03-19T00:03:21.504Z,101349.25
2023-03-19T00:05:54.825Z,101346.69
2023-03-19T00:08:22.936Z,101342.78
2023-03-19T00:10:49.994Z,101351.56
2023-03-19T00:13:17.222Z,101350.22
2023-03-19T00:15:44.200Z,101345.94
2023-03-19T00:18:11.529Z,101342.19
2023-03-19T00:20:38.415Z,101345.47
2023-03-19T00:23:09.357Z,101348.75
2023-03-19T00:25:36.346Z,101349.63
2023-03-19T00:28:03.270Z,101352.91
2023-03-19T00:30:30.421Z,101356.69
2023-03-19T00:32:58.779Z,101365.22
2023-03-19T00:35:25.670Z,101362.53
2023-03-19T00:37:52.915Z,101368.38
2023-03-19T00:40:19.872Z,101366.69
2023-03-19T00:42:46.861Z,101373.28
2023-03-19T00:45:14.275Z,101372.06
2023-03-19T00:47:42.306Z,101375.47
2023-03-19T00:50:09.930Z,101382.06
2023-03-19T00:52:36.852Z,101377.91
2023-03-19T00:55:03.892Z,101381.34
2023-03-19T00:57:30.794Z,101386.22
2023-03-19T00:59:57.697Z,101390.84
2023-03-19T01:02:24.663Z,101392.31
2023-03-19T01:04:51.716Z,101392.56
2023-03-19T01:07:18.653Z,101395.94
2023-03-19T01:09:45.577Z,101412.06
2023-03-19T01:12:12.599Z,101410.59
2023-03-19T01:14:39.724Z,101404.22
2023-03-19T01:17:06.939Z,101412.28
2023-03-19T01:19:34.177Z,101411.56
2023-03-19T01:22:01.141Z,101412.88
2023-03-19T01:24:31.270Z,101412.25
2023-03-19T01:26:58.596Z,101412.97
2023-03-19T01:29:40.302Z,101408.44
2023-03-19T01:32:24.703Z,101410.00
2023-03-19T01:35:11.878Z,101410.28
2023-03-19T01:37:39.152Z,101405.41
2023-03-19T01:40:09.314Z,101399.81
2023-03-19T01:42:55.777Z,101403.09
2023-03-19T01:45:42.876Z,101396.38
2023-03-19T01:48:52.479Z,101396.44
2023-03-19T01:51:26.409Z,101400.06
2023-03-19T01:54:00.413Z,101395.19
2023-03-19T01:56:38.729Z,101401.31
2023-03-19T01:59:23.711Z,101403.00
2023-03-19T02:02:26.471Z,101400.22
2023-03-19T02:05:09.754Z,101398.03
2023-03-19T02:07:40.001Z,101398.66
2023-03-19T02:10:14.964Z,101400.34
2023-03-19T02:12:42.469Z,101402.28
2023-03-19T02:15:09.909Z,101399.50
2023-03-19T02:17:37.358Z,101396.47
2023-03-19T02:20:21.283Z,101404.25
2023-03-19T02:23:15.925Z,101405.97
2023-03-19T02:25:46.796Z,101408.53
2023-03-19T02:28:18.100Z,101412.81
2023-03-19T02:30:48.618Z,101419.63
2023-03-19T02:33:18.606Z,101416.94
2023-03-19T02:35:51.991Z,101416.72
2023-03-19T02:38:23.190Z,101418.41
2023-03-19T02:40:55.473Z,101423.06
2023-03-19T02:43:23.135Z,101419.16
2023-03-19T02:45:51.955Z,101418.19
2023-03-19T02:48:23.252Z,101407.31
2023-03-19T02:50:50.349Z,101406.47
2023-03-19T02:53:20.416Z,101403.53
2023-03-19T02:55:50.042Z,101405.97
2023-03-19T02:58:17.311Z,101403.53
2023-03-19T03:00:45.241Z,101402.69
2023-03-19T03:03:13.004Z,101392.81
2023-03-19T03:05:40.847Z,101397.22
2023-03-19T03:08:07.943Z,101398.44
2023-03-19T03:10:35.339Z,101398.53
2023-03-19T03:13:05.842Z,101411.38
2023-03-19T03:15:33.089Z,101405.72
2023-03-19T03:18:00.989Z,101412.31
2023-03-19T03:20:27.999Z,101409.72
2023-03-19T03:22:55.046Z,101415.97
2023-03-19T03:25:22.816Z,101419.00
2023-03-19T03:27:49.990Z,101417.19
2023-03-19T03:30:17.194Z,101419.84
2023-03-19T03:32:44.462Z,101415.72
2023-03-19T03:35:12.170Z,101416.09
2023-03-19T03:37:39.943Z,101430.38
2023-03-19T03:40:08.381Z,101419.84
2023-03-19T03:42:37.533Z,101424.50
2023-03-19T03:45:07.619Z,101421.44
2023-03-19T03:47:34.616Z,101424.22
2023-03-19T03:50:02.136Z,101426.38
2023-03-19T03:52:31.578Z,101426.63
2023-03-19T03:54:59.381Z,101440.56
2023-03-19T03:57:27.661Z,101437.41
2023-03-19T03:59:55.851Z,101439.59
2023-03-19T04:02:23.724Z,101436.34
2023-03-19T04:04:51.024Z,101439.53
2023-03-19T04:07:18.182Z,101435.03
2023-03-19T04:09:48.196Z,101431.97
2023-03-19T04:12:16.055Z,101442.72
2023-03-19T04:14:43.198Z,101431.34
2023-03-19T04:17:10.444Z,101433.78
2023-03-19T04:19:38.583Z,101448.94
2023-03-19T04:22:07.453Z,101447.94
2023-03-19T04:24:34.883Z,101454.06
2023-03-19T04:27:02.825Z,101450.63
2023-03-19T04:29:31.234Z,101462.22
2023-03-19T04:31:59.172Z,101457.09
2023-03-19T04:34:26.574Z,101460.38
2023-03-19T04:36:53.558Z,101464.78
2023-03-19T04:39:20.613Z,101465.03
2023-03-19T04:41:47.741Z,101473.91
2023-03-19T04:44:32.267Z,101468.91
2023-03-19T04:47:01.969Z,101473.06
2023-03-19T04:49:34.092Z,101468.66
2023-03-19T04:52:01.462Z,101467.69
2023-03-19T04:54:28.551Z,101469.41
2023-03-19T04:56:56.813Z,101472.19
2023-03-19T04:59:27.420Z,101465.13
2023-03-19T05:01:55.021Z,101467.69
2023-03-19T05:04:24.144Z,101468.66
2023-03-19T05:06:54.384Z,101468.53
2023-03-19T05:09:21.545Z,101470.38
2023-03-19T05:11:48.632Z,101474.03
2023-03-19T05:14:19.808Z,101478.66
2023-03-19T05:17:08.079Z,101481.06
2023-03-19T05:19:48.731Z,101488.59
2023-03-19T05:22:17.345Z,101496.59
2023-03-19T05:24:46.522Z,101494.47
2023-03-19T05:27:13.657Z,101498.22
2023-03-19T05:29:59.112Z,101504.03
2023-03-19T05:32:50.518Z,101508.16
2023-03-19T05:35:29.564Z,101516.06
2023-03-19T05:37:57.835Z,101516.91
2023-03-19T05:40:25.946Z,101525.94
2023-03-19T05:42:54.170Z,101519.38
2023-03-19T05:45:26.135Z,101527.19
2023-03-19T05:47:56.876Z,101530.97
2023-03-19T05:50:25.029Z,101540.34
2023-03-19T05:53:12.457Z,101536.00
2023-03-19T05:55:44.696Z,101547.69
2023-03-19T05:58:11.843Z,101556.59
2023-03-19T06:00:38.942Z,101553.75
2023-03-19T06:03:05.971Z,101557.44
2023-03-19T06:05:44.772Z,101563.75
2023-03-19T06:08:23.969Z,101566.44
2023-03-19T06:11:17.316Z,101573.63
2023-03-19T06:13:49.683Z,101573.72
2023-03-19T06:16:18.372Z,101577.16
2023-03-19T06:18:51.797Z,101576.94
2023-03-19T06:21:19.541Z,101585.50
2023-03-19T06:23:46.479Z,101589.91
2023-03-19T06:26:17.644Z,101594.31
2023-03-19T06:28:50.936Z,101603.72
2023-03-19T06:31:18.756Z,101606.28
2023-03-19T06:34:15.108Z,101615.78
2023-03-19T06:36:43.294Z,101620.00
2023-03-19T06:39:13.027Z,101623.19
2023-03-19T06:41:40.020Z,101621.16
2023-03-19T06:44:17.072Z,101621.59
2023-03-19T06:46:44.042Z,101627.22
2023-03-19T06:49:11.117Z,101634.31
2023-03-19T06:51:38.161Z,101636.63
2023-03-19T06:54:05.133Z,101640.47
2023-03-19T06:56:32.171Z,101651.47
2023-03-19T06:58:59.056Z,101653.59
2023-03-19T07:01:26.523Z,101654.81
2023-03-19T07:03:53.736Z,101656.44
2023-03-19T07:06:23.190Z,101663.03
2023-03-19T07:08:50.547Z,101663.66
2023-03-19T07:11:17.664Z,101658.06
2023-03-19T07:13:48.519Z,101664.03
2023-03-19T07:16:15.595Z,101668.09
2023-03-19T07:18:42.592Z,101670.44
2023-03-19T07:21:09.588Z,101666.53
2023-03-19T07:23:36.513Z,101668.84
2023-03-19T07:26:03.687Z,101680.00
2023-03-19T07:28:30.630Z,101671.78
2023-03-19T07:30:57.702Z,101677.81
2023-03-19T07:33:24.731Z,101685.41
2023-03-19T07:35:52.054Z,101686.16
2023-03-19T07:38:19.068Z,101676.00
2023-03-19T07:41:00.882Z,101680.31
2023-03-19T07:43:29.522Z,101681.16
2023-03-19T07:45:56.513Z,101686.66
2023-03-19T07:48:23.612Z,101691.91
2023-03-19T07:50:51.878Z,101694.25
2023-03-19T07:53:19.769Z,101695.47
2023-03-19T07:55:48.503Z,101696.44
2023-03-19T07:58:15.599Z,101703.28
2023-03-19T08:00:42.846Z,101707.09
2023-03-19T08:03:09.779Z,101707.72
2023-03-19T08:05:36.976Z,101710.16
2023-03-19T08:08:04.108Z,101711.25
2023-03-19T08:10:31.639Z,101713.69
2023-03-19T08:12:58.785Z,101714.78
2023-03-19T08:15:25.895Z,101721.09
2023-03-19T08:18:03.562Z,101726.06
2023-03-19T08:20:30.935Z,101730.59
2023-03-19T08:22:58.705Z,101730.06
2023-03-19T08:25:26.394Z,101737.22
2023-03-19T08:27:53.473Z,101731.78
2023-03-19T08:30:23.685Z,101736.06
2023-03-19T08:32:51.082Z,101737.88
2023-03-19T08:35:18.245Z,101735.56
2023-03-19T08:37:45.541Z,101738.38
2023-03-19T08:40:13.258Z,101739.25
2023-03-19T08:42:44.341Z,101741.97
2023-03-19T08:45:13.670Z,101744.00
2023-03-19T08:47:41.890Z,101744.84
2023-03-19T08:50:10.364Z,101748.94
2023-03-19T08:52:37.609Z,101760.03
2023-03-19T08:55:05.566Z,101764.66
2023-03-19T08:57:32.544Z,101758.91
2023-03-19T08:59:59.787Z,101757.72
2023-03-19T09:02:26.743Z,101762.41
2023-03-19T09:04:54.273Z,101760.53
2023-03-19T09:07:21.426Z,101762.84
2023-03-19T09:09:48.458Z,101761.56
2023-03-19T09:12:17.265Z,101761.28
2023-03-19T09:14:44.226Z,101761.03
2023-03-19T09:17:13.469Z,101762.88
2023-03-19T09:19:41.073Z,101771.31
2023-03-19T09:22:08.186Z,101767.91
2023-03-19T09:24:35.164Z,101770.13
2023-03-19T09:27:02.146Z,101775.72
2023-03-19T09:29:29.250Z,101770.81
2023-03-19T09:31:56.228Z,101774.59
2023-03-19T09:34:23.169Z,101779.66
2023-03-19T09:36:50.105Z,101780.31
2023-03-19T09:39:17.185Z,101777.69
2023-03-19T09:42:05.069Z,101782.56
2023-03-19T09:44:41.042Z,101788.25
2023-03-19T09:47:26.236Z,101796.88
2023-03-19T09:49:59.445Z,101786.13
2023-03-19T09:52:59.808Z,101776.97
2023-03-19T09:55:44.395Z,101774.97
2023-03-19T09:58:17.824Z,101787.16
2023-03-19T10:00:49.633Z,101788.13
2023-03-19T10:03:31.969Z,101794.09
2023-03-19T10:06:14.992Z,101786.91
2023-03-19T10:08:53.529Z,101798.34
2023-03-19T10:11:38.561Z,101783.50
2023-03-19T10:14:43.006Z,101792.47
2023-03-19T10:17:18.863Z,101793.00
2023-03-19T10:19:49.276Z,101792.19
2023-03-19T10:22:22.490Z,101787.06
2023-03-19T10:24:51.911Z,101786.53
2023-03-19T10:27:21.296Z,101785.91
2023-03-19T10:29:49.104Z,101783.22
2023-03-19T10:32:26.230Z,101787.53
2023-03-19T10:34:55.989Z,101786.34
2023-03-19T10:37:26.704Z,101782.50
2023-03-19T10:39:57.879Z,101770.66
2023-03-19T10:42:33.006Z,101778.00
2023-03-19T10:45:18.013Z,101779.78
2023-03-19T10:47:48.100Z,101788.44
2023-03-19T10:50:21.016Z,101784.41
2023-03-19T10:52:53.370Z,101788.41
2023-03-19T10:55:30.589Z,101786.44
2023-03-19T10:58:05.055Z,101792.53
2023-03-19T11:00:35.520Z,101787.84
2023-03-19T11:03:04.982Z,101782.66
2023-03-19T11:05:35.353Z,101783.28
2023-03-19T11:08:05.747Z,101781.97
2023-03-19T11:10:36.739Z,101776.13
2023-03-19T11:13:23.818Z,101774.50
2023-03-19T11:15:53.092Z,101776.53
2023-03-19T11:18:27.576Z,101772.91
2023-03-19T11:21:02.199Z,101773.34
2023-03-19T11:23:32.280Z,101774.94
2023-03-19T11:26:02.165Z,101774.09
2023-03-19T11:28:33.929Z,101770.28
2023-03-19T11:31:44.473Z,101773.66
2023-03-19T11:34:14.073Z,101763.66
2023-03-19T11:37:08.585Z,101772.00
2023-03-19T11:39:58.406Z,101775.97
2023-03-19T11:42:57.547Z,101765.19
2023-03-19T11:45:31.758Z,101752.56
2023-03-19T11:48:01.720Z,101755.03
2023-03-19T11:50:48.459Z,101764.34
2023-03-19T11:53:38.283Z,101753.09
2023-03-19T11:56:33.258Z,101748.38
2023-03-19T11:59:19.049Z,101751.47
2023-03-19T12:02:24.323Z,101756.34
2023-03-19T12:04:51.236Z,101744.47
2023-03-19T12:07:43.048Z,101748.84
2023-03-19T12:10:29.381Z,101745.34
2023-03-19T12:13:27.205Z,101736.25
2023-03-19T12:16:21.107Z,101737.59
2023-03-19T12:18:54.267Z,101733.22
2023-03-19T12:21:38.086Z,101732.38
2023-03-19T12:24:26.206Z,101732.78
2023-03-19T12:27:11.214Z,101724.59
2023-03-19T12:29:43.688Z,101733.75
2023-03-19T12:32:46.670Z,101719.25
2023-03-19T12:35:29.063Z,101713.84
2023-03-19T12:38:17.576Z,101707.47
2023-03-19T12:40:57.799Z,101705.91
2023-03-19T12:43:51.809Z,101704.22
2023-03-19T12:46:26.093Z,101713.28
2023-03-19T12:49:08.167Z,101699.22
2023-03-19T12:51:42.504Z,101698.06
2023-03-19T12:54:24.034Z,101702.03
2023-03-19T12:57:08.784Z,101706.75
2023-03-19T12:59:44.029Z,101701.03
2023-03-19T13:02:17.618Z,101695.94
2023-03-19T13:04:59.032Z,101685.56
2023-03-19T13:07:37.016Z,101700.47
2023-03-19T13:10:11.338Z,101699.59
2023-03-19T13:12:39.449Z,101698.97
2023-03-19T13:15:28.116Z,101705.78
2023-03-19T13:18:16.186Z,101704.03
2023-03-19T13:21:04.829Z,101713.63
2023-03-19T13:23:35.117Z,101690.78
2023-03-19T13:26:08.073Z,101691.44
2023-03-19T13:28:37.589Z,101681.75
2023-03-19T13:31:08.461Z,101690.53
2023-03-19T13:33:38.850Z,101678.75
2023-03-19T13:36:08.066Z,101681.19
2023-03-19T13:38:41.328Z,101675.78
2023-03-19T13:41:39.285Z,101684.03
2023-03-19T13:44:32.438Z,101677.50
2023-03-19T13:47:23.321Z,101684.25
2023-03-19T13:50:19.757Z,101680.56
2023-03-19T13:53:21.152Z,101681.09
2023-03-19T13:55:58.293Z,101682.91
2023-03-19T13:58:47.702Z,101683.69
2023-03-19T14:01:27.047Z,101689.50
2023-03-19T14:04:05.382Z,101666.88
2023-03-19T14:06:41.155Z,101672.41
2023-03-19T14:09:30.746Z,101665.44
2023-03-19T14:12:18.337Z,101662.00
2023-03-19T14:14:54.220Z,101669.75
2023-03-19T14:17:42.135Z,101667.34
2023-03-19T14:20:13.228Z,101656.13
2023-03-19T14:22:56.702Z,101660.69
2023-03-19T14:25:29.291Z,101676.25
2023-03-19T14:28:01.184Z,101645.63
2023-03-19T14:30:39.073Z,101653.91
2023-03-19T14:33:15.686Z,101645.78
2023-03-19T14:35:49.207Z,101659.94
2023-03-19T14:38:41.974Z,101660.50
2023-03-19T14:41:17.193Z,101658.91
2023-03-19T14:44:23.080Z,101651.94
2023-03-19T14:47:02.087Z,101642.09
2023-03-19T14:50:11.226Z,101655.66
2023-03-19T14:52:58.490Z,101664.16
2023-03-19T14:55:38.105Z,101656.16
2023-03-19T14:58:05.754Z,101649.00
2023-03-19T15:00:46.635Z,101658.34
2023-03-19T15:03:42.648Z,101663.50
2023-03-19T15:06:13.544Z,101648.78
2023-03-19T15:08:42.322Z,101665.03
2023-03-19T15:11:16.201Z,101659.31
2023-03-19T15:14:04.962Z,101655.66
2023-03-19T15:16:50.538Z,101663.56
2023-03-19T15:19:26.328Z,101670.47
2023-03-19T15:22:09.222Z,101656.38
2023-03-19T15:24:36.578Z,101645.69
2023-03-19T15:27:24.238Z,101645.66
2023-03-19T15:29:53.455Z,101654.00
2023-03-19T15:33:09.143Z,101656.81
2023-03-19T15:35:36.123Z,101667.84
2023-03-19T15:38:09.010Z,101664.66
2023-03-19T15:40:37.430Z,101669.09
2023-03-19T15:43:05.199Z,101659.91
2023-03-19T15:45:35.773Z,101670.78
2023-03-19T15:48:21.730Z,101663.94
2023-03-19T15:50:53.293Z,101666.13
2023-03-19T15:53:24.662Z,101668.44
2023-03-19T15:55:54.900Z,101671.22
2023-03-19T15:58:25.940Z,101673.28
2023-03-19T16:00:54.652Z,101679.06
2023-03-19T16:03:28.110Z,101682.88
2023-03-19T16:06:07.444Z,101683.22
2023-03-19T16:08:34.583Z,101687.75
2023-03-19T16:11:30.190Z,101695.94
2023-03-19T16:14:10.212Z,101702.56
2023-03-19T16:16:40.466Z,101694.38
2023-03-19T16:19:29.363Z,101709.66
2023-03-19T16:21:57.341Z,101705.97
2023-03-19T16:24:37.678Z,101701.47
2023-03-19T16:27:08.074Z,101706.59
2023-03-19T16:29:44.687Z,101708.81
2023-03-19T16:32:11.579Z,101714.91
2023-03-19T16:34:47.198Z,101688.88
2023-03-19T16:37:38.452Z,101706.47
2023-03-19T16:40:17.314Z,101728.00
2023-03-19T16:42:44.292Z,101729.47
2023-03-19T16:45:17.349Z,101728.13
2023-03-19T16:48:03.696Z,101734.09
2023-03-19T16:50:37.534Z,101742.41
2023-03-19T16:53:13.286Z,101741.44
2023-03-19T16:55:40.591Z,101753.41
2023-03-19T16:58:15.651Z,101746.34
2023-03-19T17:00:43.868Z,101765.31
2023-03-19T17:03:14.005Z,101754.19
2023-03-19T17:05:42.764Z,101765.66
2023-03-19T17:08:09.755Z,101774.13
2023-03-19T17:10:40.179Z,101773.50
2023-03-19T17:13:07.735Z,101780.84
2023-03-19T17:15:34.911Z,101783.88
2023-03-19T17:18:33.667Z,101807.47
2023-03-19T17:21:09.291Z,101800.84
2023-03-19T17:23:38.345Z,101794.00
2023-03-19T17:26:14.735Z,101799.84
2023-03-19T17:28:41.929Z,101791.78
2023-03-19T17:31:29.212Z,101792.69
2023-03-19T17:34:04.442Z,101791.28
2023-03-19T17:36:32.003Z,101792.13
2023-03-19T17:38:58.961Z,101791.88
2023-03-19T17:41:26.096Z,101790.75
2023-03-19T17:43:53.093Z,101802.88
2023-03-19T17:46:25.631Z,101798.16
2023-03-19T17:48:54.328Z,101800.41
2023-03-19T17:51:24.003Z,101805.69
2023-03-19T17:53:54.322Z,101807.94
2023-03-19T17:56:27.495Z,101821.72
2023-03-19T17:58:57.555Z,101825.94
2023-03-19T18:01:28.530Z,101818.50
2023-03-19T18:03:57.696Z,101822.00
2023-03-19T18:06:26.647Z,101819.41
2023-03-19T18:08:53.785Z,101820.16
2023-03-19T18:11:20.847Z,101821.19
2023-03-19T18:13:47.895Z,101819.03
2023-03-19T18:16:18.649Z,101831.69
2023-03-19T18:18:46.089Z,101831.25
2023-03-19T18:21:16.233Z,101839.03
2023-03-19T18:23:44.308Z,101843.00
2023-03-19T18:26:16.990Z,101838.31
2023-03-19T18:28:44.764Z,101835.81
2023-03-19T18:31:25.952Z,101836.44
2023-03-19T18:34:06.612Z,101839.03
2023-03-19T18:36:34.670Z,101839.66
2023-03-19T18:39:01.788Z,101850.94
2023-03-19T18:41:32.419Z,101854.47
2023-03-19T18:44:07.198Z,101858.00
2023-03-19T18:46:35.807Z,101854.28
2023-03-19T18:49:25.592Z,101866.31
2023-03-19T18:52:07.095Z,101865.25
2023-03-19T18:54:34.104Z,101866.75
2023-03-19T18:57:02.248Z,101861.91
2023-03-19T18:59:32.884Z,101875.09
2023-03-19T19:02:13.401Z,101874.22
2023-03-19T19:04:48.652Z,101875.84
2023-03-19T19:07:17.468Z,101880.41
2023-03-19T19:09:44.411Z,101883.63
2023-03-19T19:12:14.946Z,101887.34
2023-03-19T19:14:43.287Z,101890.38
2023-03-19T19:17:29.278Z,101882.63
2023-03-19T19:19:56.581Z,101889.28
2023-03-19T19:22:23.527Z,101888.84
2023-03-19T19:24:50.505Z,101896.13
2023-03-19T19:27:20.404Z,101892.06
2023-03-19T19:29:47.888Z,101891.00
2023-03-19T19:32:24.815Z,101908.84
2023-03-19T19:34:52.560Z,101914.41
2023-03-19T19:37:23.492Z,101923.22
2023-03-19T19:39:51.765Z,101926.88
2023-03-19T19:42:21.253Z,101923.22
2023-03-19T19:44:53.481Z,101921.06
2023-03-19T19:47:20.504Z,101926.88
2023-03-19T19:49:47.453Z,101927.09
2023-03-19T19:52:17.380Z,101936.84
2023-03-19T19:54:45.776Z,101940.06
2023-03-19T19:57:24.881Z,101936.84
2023-03-19T19:59:53.873Z,101946.00
2023-03-19T20:02:21.898Z,101948.34
2023-03-19T20:04:49.188Z,101955.22
2023-03-19T20:07:16.125Z,101956.50
2023-03-19T20:09:43.250Z,101957.16
2023-03-19T20:12:32.116Z,101958.66
2023-03-19T20:14:59.648Z,101960.47
2023-03-19T20:17:27.465Z,101961.13
2023-03-19T20:19:54.689Z,101963.50
2023-03-19T20:22:21.953Z,101967.91
2023-03-19T20:24:51.267Z,101973.81
2023-03-19T20:27:26.484Z,101961.78
2023-03-19T20:29:54.249Z,101972.22
2023-03-19T20:32:28.452Z,101963.69
2023-03-19T20:34:55.531Z,101968.97
2023-03-19T20:37:22.715Z,101967.25
2023-03-19T20:39:49.746Z,101970.22
2023-03-19T20:42:16.696Z,101964.19
2023-03-19T20:44:45.061Z,101965.06
2023-03-19T20:47:26.353Z,101961.81
2023-03-19T20:49:53.994Z,101962.47
2023-03-19T20:52:21.528Z,101959.44
2023-03-19T20:54:49.215Z,101964.34
2023-03-19T20:57:29.312Z,101966.06
2023-03-19T21:00:02.531Z,101968.66
2023-03-19T21:02:29.824Z,101969.31
2023-03-19T21:04:56.979Z,101974.47
2023-03-19T21:07:34.736Z,101968.00
2023-03-19T21:10:30.847Z,101970.34
2023-03-19T21:12:59.517Z,101976.50
2023-03-19T21:15:26.696Z,101975.28
2023-03-19T21:17:57.424Z,101976.88
2023-03-19T21:20:32.823Z,101982.38
2023-03-19T21:23:14.807Z,101969.66
2023-03-19T21:25:43.997Z,101969.56
2023-03-19T21:28:27.032Z,101967.94
2023-03-19T21:30:54.484Z,101972.28
2023-03-19T21:33:26.676Z,101972.06
2023-03-19T21:35:57.883Z,101979.19
2023-03-19T21:38:25.274Z,101974.00
2023-03-19T21:40:58.706Z,101981.00
2023-03-19T21:43:33.626Z,101984.56
2023-03-19T21:46:13.857Z,101988.53
2023-03-19T21:48:44.790Z,101975.97
2023-03-19T21:51:15.136Z,101983.03
2023-03-19T21:53:43.234Z,101979.63
2023-03-19T21:56:21.572Z,101983.28
2023-03-19T21:58:51.462Z,101983.28
2023-03-19T22:01:24.592Z,101986.72
2023-03-19T22:03:53.583Z,101984.03
2023-03-19T22:06:22.243Z,101989.41
2023-03-19T22:08:57.328Z,101989.50
2023-03-19T22:11:31.067Z,101981.53
2023-03-19T22:14:27.022Z,101998.53
2023-03-19T22:16:55.951Z,101992.41
2023-03-19T22:19:23.209Z,101986.31
2023-03-19T22:21:53.988Z,101990.19
2023-03-19T22:24:21.147Z,101983.28
2023-03-19T22:26:52.670Z,101990.41
2023-03-19T22:29:25.711Z,101992.34
2023-03-19T22:31:55.525Z,101989.13
2023-03-19T22:34:26.379Z,101986.44
2023-03-19T22:36:53.749Z,101983.97
2023-03-19T22:39:22.036Z,101993.84
2023-03-19T22:41:49.500Z,101988.47
2023-03-19T22:44:32.338Z,101991.28
2023-03-19T22:47:01.911Z,101996.88
2023-03-19T22:49:30.189Z,101993.44
2023-03-19T22:51:58.126Z,101990.00
2023-03-19T22:54:25.684Z,101986.78
2023-03-19T22:56:52.533Z,101989.69
2023-03-19T22:59:20.512Z,101988.94
2023-03-19T23:01:48.161Z,101994.53
2023-03-19T23:04:20.424Z,101996.44
2023-03-19T23:06:51.277Z,101987.75
2023-03-19T23:09:37.733Z,101987.88
2023-03-19T23:12:06.300Z,101991.97
2023-03-19T23:14:33.324Z,101983.13
2023-03-19T23:17:06.952Z,101988.50
2023-03-19T23:19:38.917Z,101977.13
2023-03-19T23:22:07.673Z,101979.06
2023-03-19T23:24:35.135Z,101988.09
2023-03-19T23:27:03.243Z,101976.50
2023-03-19T23:29:32.595Z,101987.44
2023-03-19T23:31:59.715Z,101973.38
2023-03-19T23:34:28.675Z,101978.84
2023-03-19T23:37:00.200Z,101978.09
2023-03-19T23:39:27.220Z,101972.94
2023-03-19T23:41:58.085Z,101972.19
2023-03-19T23:44:27.291Z,101973.25
2023-03-19T23:46:55.557Z,101970.69
2023-03-19T23:49:29.922Z,101962.84
2023-03-19T23:51:57.611Z,101964.97
2023-03-19T23:54:24.554Z,101958.88
2023-03-19T23:56:54.193Z,101956.94
2023-03-19T23:59:21.447Z,101958.88
